createdAt,value
2022-08-16T00:01:24.447Z,55.23
2022-08-16T00:03:53.739Z,55.14
2022-08-16T00:06:21.915Z,54.94
2022-08-16T00:08:49.909Z,54.93
2022-08-16T00:11:17.011Z,55.16
2022-08-16T00:13:54.021Z,54.94
2022-08-16T00:17:00.957Z,54.73
2022-08-16T00:19:17.137Z,54.54
2022-08-16T00:21:45.147Z,54.18
2022-08-16T00:24:13.002Z,54.10
2022-08-16T00:26:44.941Z,54.36
2022-08-16T00:29:16.027Z,54.46
2022-08-16T00:31:59.664Z,54.41
2022-08-16T00:34:43.294Z,54.17
2022-08-16T00:37:18.545Z,54.25
2022-08-16T00:39:58.250Z,54.42
2022-08-16T00:42:32.351Z,54.95
2022-08-16T00:45:31.516Z,54.62
2022-08-16T00:48:30.495Z,54.31
2022-08-16T00:51:00.463Z,54.33
2022-08-16T00:53:30.868Z,54.38
2022-08-16T00:56:05.167Z,54.23
2022-08-16T00:58:35.365Z,54.53
2022-08-16T01:01:08.050Z,54.26
2022-08-16T01:03:37.602Z,54.47
2022-08-16T01:06:39.541Z,54.20
2022-08-16T01:09:00.370Z,54.34
2022-08-16T01:11:29.697Z,54.30
2022-08-16T01:14:04.916Z,54.57
2022-08-16T01:16:32.669Z,54.55
2022-08-16T01:19:17.821Z,54.81
2022-08-16T01:22:48.192Z,54.97
2022-08-16T01:24:55.364Z,54.73
2022-08-16T01:27:29.726Z,54.77
2022-08-16T01:30:03.777Z,54.69
2022-08-16T01:32:36.019Z,54.86
2022-08-16T01:35:08.122Z,54.78
2022-08-16T01:37:53.095Z,54.85
2022-08-16T01:40:28.166Z,54.82
2022-08-16T01:42:57.113Z,54.81
2022-08-16T01:45:24.542Z,55.11
2022-08-16T01:48:19.170Z,55.20
2022-08-16T01:51:09.539Z,55.46
2022-08-16T01:53:34.526Z,55.31
2022-08-16T01:56:24.547Z,55.48
2022-08-16T01:58:55.838Z,55.32
2022-08-16T02:01:26.193Z,55.41
2022-08-16T02:03:58.621Z,55.51
2022-08-16T02:06:38.677Z,55.84
2022-08-16T02:09:11.918Z,56.12
2022-08-16T02:11:48.697Z,56.04
2022-08-16T02:14:27.509Z,56.17
2022-08-16T02:16:57.876Z,56.48
2022-08-16T02:19:58.582Z,56.13
2022-08-16T02:22:34.814Z,56.41
2022-08-16T02:25:10.452Z,56.62
2022-08-16T02:27:43.441Z,56.72
2022-08-16T02:30:37.214Z,56.43
2022-08-16T02:33:06.185Z,56.45
2022-08-16T02:35:54.029Z,56.70
2022-08-16T02:38:24.201Z,56.85
2022-08-16T02:40:54.367Z,57.06
2022-08-16T02:43:26.735Z,56.62
2022-08-16T02:45:57.897Z,56.72
2022-08-16T02:48:29.247Z,56.72
2022-08-16T02:51:10.240Z,56.81
2022-08-16T02:53:46.308Z,56.59
2022-08-16T02:56:16.213Z,56.75
2022-08-16T02:58:50.747Z,57.15
2022-08-16T03:01:25.463Z,57.12
2022-08-16T03:04:29.214Z,57.40
2022-08-16T03:06:57.710Z,57.46
2022-08-16T03:09:47.743Z,57.66
2022-08-16T03:12:19.482Z,57.40
2022-08-16T03:14:48.442Z,57.10
2022-08-16T03:17:18.332Z,57.09
2022-08-16T03:19:48.149Z,56.70
2022-08-16T03:22:28.758Z,56.05
2022-08-16T03:25:07.282Z,56.38
2022-08-16T03:27:40.984Z,55.76
2022-08-16T03:30:19.822Z,55.67
2022-08-16T03:32:52.124Z,55.48
2022-08-16T03:35:33.062Z,55.45
2022-08-16T03:38:33.659Z,55.66
2022-08-16T03:41:17.196Z,55.56
2022-08-16T03:43:56.172Z,55.90
2022-08-16T03:46:47.884Z,55.60
2022-08-16T03:49:17.381Z,55.43
2022-08-16T03:51:47.503Z,55.57
2022-08-16T03:54:21.420Z,55.33
2022-08-16T03:56:57.113Z,55.34
2022-08-16T03:59:30.114Z,55.17
2022-08-16T04:02:01.738Z,55.50
2022-08-16T04:04:33.535Z,54.84
2022-08-16T04:07:07.117Z,55.12
2022-08-16T04:09:38.276Z,54.71
2022-08-16T04:12:10.689Z,54.48
2022-08-16T04:14:46.489Z,54.38
2022-08-16T04:17:17.130Z,54.41
2022-08-16T04:19:45.690Z,54.28
2022-08-16T04:22:17.423Z,54.50
2022-08-16T04:24:54.395Z,54.59
2022-08-16T04:27:29.059Z,54.17
2022-08-16T04:30:03.213Z,54.10
2022-08-16T04:32:36.376Z,53.92
2022-08-16T04:35:13.652Z,53.06
2022-08-16T04:37:47.390Z,53.32
2022-08-16T04:40:26.019Z,53.00
2022-08-16T04:42:55.601Z,52.75
2022-08-16T04:45:36.084Z,52.49
2022-08-16T04:48:10.496Z,51.77
2022-08-16T04:50:49.832Z,47.50
2022-08-16T04:53:20.919Z,44.50
2022-08-16T04:55:53.256Z,42.39
2022-08-16T04:58:43.870Z,40.57
2022-08-16T05:01:10.561Z,38.29
2022-08-16T05:03:41.532Z,37.48
2022-08-16T05:06:09.732Z,36.56
2022-08-16T05:08:38.205Z,35.42
2022-08-16T05:11:22.557Z,34.22
2022-08-16T05:13:50.235Z,33.35
2022-08-16T05:16:27.733Z,32.30
2022-08-16T05:19:11.737Z,31.82
2022-08-16T05:21:55.749Z,30.94
2022-08-16T05:24:24.959Z,30.46
2022-08-16T05:26:53.856Z,30.28
2022-08-16T05:29:24.926Z,28.95
2022-08-16T05:32:33.761Z,27.98
2022-08-16T05:35:07.804Z,27.35
2022-08-16T05:37:41.965Z,26.88
2022-08-16T05:40:13.849Z,26.21
2022-08-16T05:42:46.047Z,25.98
2022-08-16T05:45:21.318Z,25.82
2022-08-16T05:48:00.142Z,25.05
2022-08-16T05:50:37.378Z,24.47
2022-08-16T05:53:10.019Z,24.41
2022-08-16T05:55:46.046Z,24.18
2022-08-16T05:58:31.691Z,24.46
2022-08-16T06:01:01.285Z,23.97
2022-08-16T06:03:30.708Z,23.97
2022-08-16T06:06:02.780Z,23.75
2022-08-16T06:08:44.729Z,23.17
2022-08-16T06:11:15.790Z,22.78
2022-08-16T06:13:48.904Z,23.00
2022-08-16T06:16:22.195Z,22.84
2022-08-16T06:18:55.221Z,22.84
2022-08-16T06:21:23.959Z,22.68
2022-08-16T06:23:57.800Z,22.80
2022-08-16T06:26:36.746Z,22.20
2022-08-16T06:29:07.724Z,22.27
2022-08-16T06:31:46.938Z,22.51
2022-08-16T06:34:53.241Z,22.49
2022-08-16T06:37:03.811Z,20.49
2022-08-16T06:39:49.610Z,20.39
2022-08-16T06:42:47.952Z,20.23
2022-08-16T06:45:38.058Z,19.99
2022-08-16T06:48:14.224Z,19.88
2022-08-16T06:50:52.090Z,18.79
2022-08-16T06:53:20.788Z,19.31
2022-08-16T06:56:00.086Z,19.55
2022-08-16T06:58:38.622Z,19.35
2022-08-16T07:01:15.753Z,18.58
2022-08-16T07:03:55.423Z,18.30
2022-08-16T07:06:27.133Z,18.08
2022-08-16T07:08:59.161Z,17.63
2022-08-16T07:11:47.725Z,18.13
2022-08-16T07:14:27.113Z,18.42
2022-08-16T07:16:59.007Z,17.47
2022-08-16T07:20:01.956Z,17.53
2022-08-16T07:22:37.547Z,17.30
2022-08-16T07:25:13.408Z,17.46
2022-08-16T07:27:41.086Z,16.70
2022-08-16T07:30:38.798Z,16.93
2022-08-16T07:33:04.661Z,17.29
2022-08-16T07:35:34.592Z,17.10
2022-08-16T07:38:02.064Z,16.49
2022-08-16T07:41:01.030Z,17.24
2022-08-16T07:43:31.321Z,17.05
2022-08-16T07:46:01.877Z,16.99
2022-08-16T07:48:31.971Z,16.51
2022-08-16T07:51:01.588Z,16.21
2022-08-16T07:53:35.280Z,16.67
2022-08-16T07:56:11.827Z,15.72
2022-08-16T07:58:40.576Z,15.54
2022-08-16T08:01:14.996Z,15.88
2022-08-16T08:03:55.168Z,17.80
2022-08-16T08:06:29.169Z,18.01
2022-08-16T08:09:00.830Z,18.31
2022-08-16T08:11:30.109Z,19.03
2022-08-16T08:14:03.903Z,18.90
2022-08-16T08:16:38.897Z,18.90
2022-08-16T08:19:18.679Z,18.11
2022-08-16T08:22:01.100Z,19.20
2022-08-16T08:24:46.957Z,18.83
2022-08-16T08:27:22.733Z,17.93
2022-08-16T08:30:09.180Z,17.77
2022-08-16T08:33:02.170Z,18.10
2022-08-16T08:35:28.502Z,17.19
2022-08-16T08:37:56.905Z,17.19
2022-08-16T08:40:28.921Z,17.18
2022-08-16T08:43:00.957Z,17.51
2022-08-16T08:45:48.574Z,17.45
2022-08-16T08:48:32.879Z,18.06
2022-08-16T08:51:10.367Z,16.69
2022-08-16T08:53:58.734Z,16.61
2022-08-16T08:56:34.916Z,15.59
2022-08-16T08:59:21.035Z,16.39
2022-08-16T09:01:56.656Z,16.49
2022-08-16T09:04:27.690Z,16.50
2022-08-16T09:06:56.422Z,15.93
2022-08-16T09:09:26.546Z,16.28
2022-08-16T09:12:06.273Z,16.83
2022-08-16T09:14:50.797Z,17.41
2022-08-16T09:17:48.983Z,17.12
2022-08-16T09:20:13.776Z,17.72
2022-08-16T09:22:43.137Z,17.04
2022-08-16T09:25:12.593Z,17.87
2022-08-16T09:27:46.839Z,16.76
2022-08-16T09:30:33.409Z,17.01
2022-08-16T09:33:03.296Z,15.92
2022-08-16T09:35:34.614Z,15.49
2022-08-16T09:38:05.179Z,15.86
2022-08-16T09:40:42.667Z,15.50
2022-08-16T09:43:46.322Z,15.99
2022-08-16T09:46:03.511Z,15.66
2022-08-16T09:48:52.967Z,14.56
2022-08-16T09:51:36.597Z,14.65
2022-08-16T09:54:09.444Z,15.68
2022-08-16T09:56:38.654Z,15.49
2022-08-16T09:59:08.581Z,16.97
2022-08-16T10:01:38.616Z,16.25
2022-08-16T10:04:30.948Z,15.88
2022-08-16T10:09:54.053Z,16.86
2022-08-16T10:12:34.931Z,16.37
2022-08-16T10:15:17.006Z,16.48
2022-08-16T10:18:00.131Z,16.36
2022-08-16T10:20:34.800Z,16.25
2022-08-16T10:23:07.255Z,15.74
2022-08-16T10:27:19.781Z,15.87
2022-08-16T10:28:29.007Z,15.45
2022-08-16T10:30:59.794Z,15.10
2022-08-16T10:33:29.644Z,15.50
2022-08-16T10:36:07.623Z,15.96
2022-08-16T10:38:37.331Z,17.08
2022-08-16T10:41:08.749Z,17.36
2022-08-16T10:43:38.947Z,18.62
2022-08-16T10:46:40.135Z,18.42
2022-08-16T10:48:56.129Z,19.54
2022-08-16T10:51:33.382Z,19.05
2022-08-16T10:54:02.818Z,17.92
2022-08-16T10:56:51.423Z,17.75
2022-08-16T10:59:44.641Z,15.96
2022-08-16T11:02:58.969Z,15.43
2022-08-16T11:05:08.118Z,15.58
2022-08-16T11:07:43.658Z,16.38
2022-08-16T11:10:57.391Z,15.77
2022-08-16T11:16:01.172Z,15.88
2022-08-16T11:19:04.698Z,16.58
2022-08-16T11:21:29.533Z,16.30
2022-08-16T11:23:58.953Z,15.43
2022-08-16T11:26:28.489Z,15.56
2022-08-16T11:29:13.866Z,15.38
2022-08-16T11:31:42.525Z,15.07
2022-08-16T11:34:19.861Z,14.80
2022-08-16T11:36:59.309Z,14.73
2022-08-16T11:39:29.791Z,14.68
2022-08-16T11:41:58.044Z,14.65
2022-08-16T11:44:52.170Z,15.05
2022-08-16T11:47:13.274Z,15.00
2022-08-16T11:49:40.709Z,17.04
2022-08-16T11:52:08.065Z,16.88
2022-08-16T11:54:36.687Z,18.31
2022-08-16T11:57:09.201Z,19.93
2022-08-16T11:59:39.761Z,19.89
2022-08-16T12:02:32.263Z,20.29
2022-08-16T12:04:56.644Z,20.53
2022-08-16T12:07:24.210Z,22.06
2022-08-16T12:09:53.584Z,22.44
2022-08-16T12:12:23.512Z,22.98
2022-08-16T12:14:59.472Z,23.38
2022-08-16T12:17:32.295Z,24.52
2022-08-16T12:20:01.461Z,25.24
2022-08-16T12:22:31.432Z,25.23
2022-08-16T12:25:08.897Z,26.34
2022-08-16T12:27:39.283Z,25.95
2022-08-16T12:30:08.702Z,25.67
2022-08-16T12:32:52.946Z,26.24
2022-08-16T12:35:22.930Z,26.68
2022-08-16T12:37:54.351Z,26.76
2022-08-16T12:40:29.140Z,27.01
2022-08-16T12:42:59.710Z,27.16
2022-08-16T12:45:34.466Z,28.07
2022-08-16T12:48:33.829Z,27.83
2022-08-16T12:51:05.037Z,27.85
2022-08-16T12:53:41.013Z,28.19
2022-08-16T12:56:11.787Z,27.85
2022-08-16T12:58:48.814Z,28.14
2022-08-16T13:01:23.066Z,28.61
2022-08-16T13:04:08.319Z,28.82
2022-08-16T13:06:40.208Z,28.47
2022-08-16T13:09:28.934Z,28.77
2022-08-16T13:12:00.646Z,28.57
2022-08-16T13:14:33.572Z,28.54
2022-08-16T13:17:06.464Z,29.15
2022-08-16T13:20:05.422Z,29.46
2022-08-16T13:22:23.268Z,29.35
2022-08-16T13:24:53.028Z,29.49
2022-08-16T13:27:20.729Z,29.28
2022-08-16T13:30:02.258Z,29.40
2022-08-16T13:32:52.142Z,29.80
2022-08-16T13:35:20.616Z,29.78
2022-08-16T13:37:48.374Z,30.22
2022-08-16T13:40:20.006Z,30.36
2022-08-16T13:42:47.721Z,29.97
2022-08-16T13:45:16.701Z,30.12
2022-08-16T13:47:44.101Z,29.90
2022-08-16T13:50:13.210Z,30.14
2022-08-16T13:52:40.614Z,30.30
2022-08-16T13:55:17.831Z,30.58
2022-08-16T13:58:26.828Z,30.42
2022-08-16T14:00:34.311Z,30.69
2022-08-16T14:03:02.189Z,30.75
2022-08-16T14:05:29.297Z,30.96
2022-08-16T14:07:56.665Z,31.73
2022-08-16T14:10:24.030Z,30.80
2022-08-16T14:12:52.098Z,31.41
2022-08-16T14:15:21.096Z,31.38
2022-08-16T14:18:15.893Z,31.56
2022-08-16T14:20:35.722Z,31.88
2022-08-16T14:23:06.371Z,31.72
2022-08-16T14:25:33.453Z,31.10
2022-08-16T14:28:00.820Z,31.73
2022-08-16T14:30:28.196Z,32.10
2022-08-16T14:32:55.543Z,31.97
2022-08-16T14:35:36.641Z,32.25
2022-08-16T14:38:18.527Z,32.33
2022-08-16T14:40:52.781Z,33.14
2022-08-16T14:43:25.076Z,32.44
2022-08-16T14:45:54.836Z,32.90
2022-08-16T14:48:26.378Z,32.59
2022-08-16T14:50:55.343Z,32.42
2022-08-16T14:53:24.117Z,32.88
2022-08-16T14:55:51.340Z,32.98
2022-08-16T14:58:20.242Z,32.30
2022-08-16T15:01:02.421Z,32.02
2022-08-16T15:03:30.345Z,32.30
2022-08-16T15:06:01.700Z,32.50
2022-08-16T15:08:36.194Z,32.95
2022-08-16T15:11:07.476Z,33.36
2022-08-16T15:13:34.871Z,33.72
2022-08-16T15:16:03.576Z,33.59
2022-08-16T15:18:32.419Z,33.63
2022-08-16T15:21:02.252Z,33.67
2022-08-16T15:23:33.619Z,33.70
2022-08-16T15:26:03.403Z,34.24
2022-08-16T15:28:32.978Z,34.34
2022-08-16T15:31:03.135Z,34.58
2022-08-16T15:33:33.967Z,34.75
2022-08-16T15:36:02.492Z,34.65
2022-08-16T15:38:54.934Z,34.72
2022-08-16T15:41:38.462Z,34.97
2022-08-16T15:44:10.785Z,35.04
2022-08-16T15:46:56.532Z,35.12
2022-08-16T15:49:37.736Z,35.40
2022-08-16T15:52:42.016Z,35.35
2022-08-16T15:55:23.942Z,35.11
2022-08-16T15:57:58.285Z,35.49
2022-08-16T16:00:26.842Z,36.02
2022-08-16T16:03:08.487Z,35.76
2022-08-16T16:05:38.302Z,36.29
2022-08-16T16:08:10.870Z,36.31
2022-08-16T16:10:39.946Z,36.48
2022-08-16T16:13:08.774Z,36.61
2022-08-16T16:15:42.966Z,36.76
2022-08-16T16:18:12.131Z,37.05
2022-08-16T16:20:47.663Z,37.66
2022-08-16T16:23:23.389Z,37.70
2022-08-16T16:25:51.736Z,37.77
2022-08-16T16:29:05.654Z,38.30
2022-08-16T16:31:11.544Z,38.25
2022-08-16T16:33:43.534Z,38.68
2022-08-16T16:36:14.813Z,38.91
2022-08-16T16:38:46.349Z,39.11
2022-08-16T16:41:22.530Z,39.09
2022-08-16T16:43:53.567Z,38.85
2022-08-16T16:46:40.959Z,40.10
2022-08-16T16:49:11.354Z,39.87
2022-08-16T16:51:40.745Z,39.92
2022-08-16T16:54:12.818Z,40.80
2022-08-16T16:56:49.496Z,41.21
2022-08-16T16:59:18.872Z,40.90
2022-08-16T17:02:00.404Z,41.19
2022-08-16T17:04:39.402Z,41.65
2022-08-16T17:07:07.862Z,42.13
2022-08-16T17:09:40.420Z,42.27
2022-08-16T17:12:09.729Z,42.06
2022-08-16T17:14:38.438Z,42.49
2022-08-16T17:17:08.629Z,42.99
2022-08-16T17:19:40.951Z,43.38
2022-08-16T17:22:23.656Z,43.65
2022-08-16T17:25:00.555Z,43.82
2022-08-16T17:27:33.690Z,43.85
2022-08-16T17:30:15.021Z,44.21
2022-08-16T17:32:48.781Z,44.08
2022-08-16T17:35:23.159Z,44.66
2022-08-16T17:37:52.301Z,44.77
2022-08-16T17:40:38.297Z,44.57
2022-08-16T17:43:17.361Z,44.85
2022-08-16T17:45:44.403Z,45.40
2022-08-16T17:48:11.760Z,45.81
2022-08-16T17:50:39.669Z,45.58
2022-08-16T17:53:07.218Z,45.43
2022-08-16T17:55:36.903Z,45.65
2022-08-16T17:58:20.089Z,45.78
2022-08-16T18:00:52.251Z,45.91
2022-08-16T18:04:02.896Z,46.01
2022-08-16T18:06:18.816Z,46.15
2022-08-16T18:08:48.965Z,46.26
2022-08-16T18:11:18.992Z,46.27
2022-08-16T18:13:53.165Z,46.44
2022-08-16T18:16:20.745Z,47.01
2022-08-16T18:18:47.703Z,46.10
2022-08-16T18:21:34.044Z,46.42
2022-08-16T18:24:01.142Z,47.39
2022-08-16T18:26:28.213Z,46.62
2022-08-16T18:28:55.251Z,46.77
2022-08-16T18:31:22.280Z,47.05
2022-08-16T18:33:49.587Z,47.14
2022-08-16T18:36:22.141Z,47.08
2022-08-16T18:38:50.317Z,47.50
2022-08-16T18:41:18.338Z,47.31
2022-08-16T18:44:22.256Z,47.35
2022-08-16T18:46:32.332Z,47.81
2022-08-16T18:48:59.333Z,47.03
2022-08-16T18:51:26.470Z,47.55
2022-08-16T18:53:53.976Z,46.84
2022-08-16T18:56:21.249Z,46.93
2022-08-16T18:58:48.288Z,47.13
2022-08-16T19:01:15.375Z,47.12
2022-08-16T19:03:42.420Z,46.63
2022-08-16T19:06:13.936Z,47.46
2022-08-16T19:08:43.912Z,47.19
2022-08-16T19:11:15.068Z,47.68
2022-08-16T19:13:46.020Z,47.83
2022-08-16T19:16:13.911Z,48.11
2022-08-16T19:18:41.054Z,48.17
2022-08-16T19:21:11.437Z,48.03
2022-08-16T19:23:43.795Z,48.10
2022-08-16T19:26:24.958Z,47.65
2022-08-16T19:28:58.599Z,48.14
2022-08-16T19:31:31.742Z,48.39
2022-08-16T19:33:59.042Z,48.73
2022-08-16T19:36:35.887Z,48.96
2022-08-16T19:39:15.320Z,48.61
2022-08-16T19:41:45.314Z,49.02
2022-08-16T19:44:13.525Z,48.97
2022-08-16T19:46:44.994Z,48.67
2022-08-16T19:49:15.789Z,49.42
2022-08-16T19:51:47.637Z,48.65
2022-08-16T19:54:15.340Z,48.97
2022-08-16T19:56:42.493Z,49.14
2022-08-16T19:59:19.222Z,49.64
2022-08-16T20:01:51.143Z,48.57
2022-08-16T20:04:18.717Z,48.65
2022-08-16T20:06:47.030Z,48.71
2022-08-16T20:09:14.724Z,48.36
2022-08-16T20:11:44.542Z,48.61
2022-08-16T20:14:24.028Z,48.61
2022-08-16T20:16:55.183Z,48.47
2022-08-16T20:19:22.568Z,48.23
2022-08-16T20:21:50.002Z,48.76
2022-08-16T20:24:33.318Z,48.30
2022-08-16T20:27:02.534Z,48.81
2022-08-16T20:29:29.712Z,49.29
2022-08-16T20:31:56.982Z,49.28
2022-08-16T20:34:24.030Z,49.42
2022-08-16T20:36:50.971Z,49.37
2022-08-16T20:39:18.036Z,49.65
2022-08-16T20:44:29.362Z,50.28
2022-08-16T20:46:56.433Z,50.45
2022-08-16T20:49:23.836Z,50.47
2022-08-16T20:51:55.899Z,50.85
2022-08-16T20:54:24.630Z,51.33
2022-08-16T20:56:51.881Z,51.06
2022-08-16T20:59:19.076Z,51.26
2022-08-16T21:01:50.540Z,51.42
2022-08-16T21:04:23.464Z,51.67
2022-08-16T21:06:55.060Z,51.83
2022-08-16T21:09:25.400Z,52.09
2022-08-16T21:11:55.080Z,52.38
2022-08-16T21:14:23.092Z,52.76
2022-08-16T21:16:50.492Z,52.74
2022-08-16T21:19:17.733Z,53.01
2022-08-16T21:21:44.799Z,52.91
2022-08-16T21:24:11.981Z,53.13
2022-08-16T21:26:39.266Z,53.00
2022-08-16T21:29:07.682Z,53.23
2022-08-16T21:31:40.412Z,53.41
2022-08-16T21:34:08.417Z,53.64
2022-08-16T21:36:36.609Z,53.99
2022-08-16T21:39:06.249Z,53.83
2022-08-16T21:41:38.580Z,54.14
2022-08-16T21:46:34.014Z,54.21
2022-08-16T21:49:01.209Z,54.59
2022-08-16T21:51:28.293Z,54.83
2022-08-16T21:53:56.909Z,54.95
2022-08-16T21:56:24.026Z,55.03
2022-08-16T21:58:52.837Z,55.27
2022-08-16T22:01:23.290Z,55.78
2022-08-16T22:04:36.034Z,55.33
2022-08-16T22:06:39.213Z,55.26
2022-08-16T22:09:07.602Z,55.32
2022-08-16T22:11:34.653Z,55.68
2022-08-16T22:14:02.319Z,55.65
2022-08-16T22:16:33.212Z,55.98
2022-08-16T22:19:01.940Z,56.07
2022-08-16T22:21:29.781Z,56.29
2022-08-16T22:23:58.818Z,56.50
2022-08-16T22:26:33.506Z,56.83
2022-08-16T22:29:04.729Z,56.33
2022-08-16T22:31:32.337Z,56.19
2022-08-16T22:34:01.957Z,56.13
2022-08-16T22:36:31.262Z,56.27
2022-08-16T22:38:59.858Z,56.33
2022-08-16T22:41:28.733Z,56.71
2022-08-16T22:43:56.180Z,56.66
2022-08-16T22:46:23.540Z,56.50
2022-08-16T22:48:50.983Z,56.75
2022-08-16T22:51:19.607Z,56.94
2022-08-16T22:53:48.200Z,56.98
2022-08-16T22:56:17.690Z,56.92
2022-08-16T22:58:45.829Z,57.22
2022-08-16T23:01:14.175Z,57.37
2022-08-16T23:03:42.967Z,57.53
2022-08-16T23:06:12.473Z,57.59
2022-08-16T23:08:41.576Z,57.58
2022-08-16T23:11:22.828Z,57.67
2022-08-16T23:13:55.076Z,57.80
2022-08-16T23:16:33.051Z,58.12
2022-08-16T23:19:06.062Z,58.23
2022-08-16T23:21:34.205Z,58.19
2022-08-16T23:24:01.853Z,58.50
2022-08-16T23:26:45.297Z,58.55
2022-08-16T23:29:25.648Z,58.41
2022-08-16T23:32:11.187Z,58.60
2022-08-16T23:34:38.307Z,58.10
2022-08-16T23:37:06.660Z,58.59
2022-08-16T23:39:35.935Z,58.71
2022-08-16T23:42:11.776Z,58.82
2022-08-16T23:44:42.325Z,58.66
2022-08-16T23:47:24.671Z,58.66
2022-08-16T23:50:00.528Z,58.74
2022-08-16T23:52:42.105Z,58.58
2022-08-16T23:55:18.875Z,58.45
2022-08-16T23:57:46.397Z,58.76
